^^
Saratoga-Weather Station Historical Data
Daily Summary for August 31, 2020 Units:  Metric    English   Both
Daily Weekly Monthly Yearly Custom
  High: Low: Average:
Temperature: 20.8 °C 11.4 °C 16 °C
Dew Point: 12.8 °C 9.7 °C 11.2 °C
Humidity: 91% 55% 74%
Wind Speed: 17.7km/h 0km/h 3.2km/h
Wind Gust: 19.3km/h - -
Wind- - WSW
Pressure: 1013.5 hPa 1005.8 hPa -
Precipitation: 0.0 mm    
Historical Graphs
 
 
Tabular Data for August 31, 2020
Time Temperature Dew Point Pressure Wind Wind Speed Wind Gust Humidity Rainfall Rate (Hourly) solar
00:04 13.1 °C 10.3 °C 1005.8 hPa Calm   1.6 km/h 83% 0.0 mm 0 W/m2
00:09 13.1 °C 10.3 °C 1005.8 hPa Calm     83% 0.0 mm 0 W/m2
00:14 13 °C 10.2 °C 1005.8 hPa Calm   1.6 km/h 83% 0.0 mm 0 W/m2
00:19 12.9 °C 10.3 °C 1005.8 hPa Calm     84% 0.0 mm 0 W/m2
00:24 12.8 °C 10.2 °C 1005.8 hPa Calm     84% 0.0 mm 0 W/m2
00:29 12.8 °C 10.2 °C 1005.8 hPa Calm     84% 0.0 mm 0 W/m2
00:34 12.7 °C 10.1 °C 1005.8 hPa Calm     84% 0.0 mm 0 W/m2
00:39 12.6 °C 10.1 °C 1005.8 hPa Calm     85% 0.0 mm 0 W/m2
00:44 12.6 °C 10 °C 1005.8 hPa Calm     84% 0.0 mm 0 W/m2
00:49 12.5 °C 10 °C 1005.8 hPa Calm     85% 0.0 mm 0 W/m2
00:54 12.4 °C 9.9 °C 1005.8 hPa Calm     85% 0.0 mm 0 W/m2
00:59 12.3 °C 9.9 °C 1005.8 hPa Calm     85% 0.0 mm 0 W/m2
01:04 12.3 °C 10 °C 1005.8 hPa Calm     86% 0.0 mm 0 W/m2
01:09 12.2 °C 9.9 °C 1005.8 hPa Calm     86% 0.0 mm 0 W/m2
01:14 12.2 °C 9.9 °C 1006.1 hPa Calm     86% 0.0 mm 0 W/m2
01:19 12.1 °C 9.8 °C 1006.1 hPa Calm     86% 0.0 mm 0 W/m2
01:24 12.1 °C 10 °C 1006.1 hPa Calm     87% 0.0 mm 0 W/m2
01:29 12.1 °C 10 °C 1006.1 hPa Calm     87% 0.0 mm 0 W/m2
01:34 12.1 °C 10 °C 1006.1 hPa Calm     87% 0.0 mm 0 W/m2
01:39 12.1 °C 10 °C 1006.1 hPa Calm     87% 0.0 mm 0 W/m2
01:44 12.1 °C 10 °C 1006.1 hPa Calm     87% 0.0 mm 0 W/m2
01:49 12 °C 10.1 °C 1006.1 hPa Calm     88% 0.0 mm 0 W/m2
01:54 11.9 °C 10 °C 1006.1 hPa Calm     88% 0.0 mm 0 W/m2
01:59 11.9 °C 10 °C 1006.1 hPa Calm     88% 0.0 mm 0 W/m2
02:05 11.9 °C 10 °C 1005.8 hPa Calm     88% 0.0 mm 0 W/m2
02:10 11.8 °C 9.9 °C 1005.8 hPa Calm     88% 0.0 mm 0 W/m2
02:15 11.8 °C 9.9 °C 1005.8 hPa Calm     88% 0.0 mm 0 W/m2
02:20 11.8 °C 9.9 °C 1005.8 hPa Calm     88% 0.0 mm 0 W/m2
02:25 11.7 °C 9.8 °C 1005.8 hPa Calm     88% 0.0 mm 0 W/m2
02:30 11.6 °C 9.7 °C 1005.8 hPa Calm     88% 0.0 mm 0 W/m2
02:35 11.6 °C 9.8 °C 1005.8 hPa Calm     89% 0.0 mm 0 W/m2
02:40 11.5 °C 9.7 °C 1005.8 hPa Calm     89% 0.0 mm 0 W/m2
02:45 11.4 °C 9.7 °C 1005.8 hPa Calm     89% 0.0 mm 0 W/m2
02:50 11.4 °C 9.8 °C 1005.8 hPa SW 3.2 km/h 3.2 km/h 90% 0.0 mm 0 W/m2
02:55 11.4 °C 9.8 °C 1005.8 hPa Calm     90% 0.0 mm 0 W/m2
03:00 11.5 °C 9.9 °C 1005.8 hPa Calm     90% 0.0 mm 0 W/m2
03:05 11.5 °C 9.9 °C 1005.8 hPa Calm     90% 0.0 mm 0 W/m2
03:10 11.7 °C 10.1 °C 1006.1 hPa SW 1.4 km/h 3.2 km/h 90% 0.0 mm 0 W/m2
03:15 11.7 °C 9.9 °C 1006.1 hPa Calm     89% 0.0 mm 0 W/m2
03:20 11.8 °C 10 °C 1006.1 hPa SW 1.4 km/h 1.6 km/h 89% 0.0 mm 0 W/m2
03:25 11.8 °C 10 °C 1006.1 hPa East 4.7 km/h 4.8 km/h 89% 0.0 mm 0 W/m2
03:30 11.9 °C 10.1 °C 1006.1 hPa ESE 3.2 km/h 4.8 km/h 89% 0.0 mm 0 W/m2
03:35 12 °C 10.2 °C 1006.1 hPa Calm     89% 0.0 mm 0 W/m2
03:40 12.1 °C 10.2 °C 1006.1 hPa ESE 3.2 km/h 3.2 km/h 88% 0.0 mm 0 W/m2
03:45 12 °C 10.1 °C 1006.1 hPa Calm     88% 0.0 mm 0 W/m2
03:50 12 °C 10.1 °C 1006.1 hPa Calm     88% 0.0 mm 0 W/m2
03:56 11.9 °C 10 °C 1006.1 hPa Calm     88% 0.0 mm 0 W/m2
04:06 11.9 °C 10.1 °C 1006.1 hPa Calm     89% 0.0 mm 0 W/m2
04:11 11.9 °C 10.1 °C 1006.1 hPa Calm     89% 0.0 mm 0 W/m2
04:16 11.8 °C 9.9 °C 1005.8 hPa Calm     88% 0.0 mm 0 W/m2
04:21 11.7 °C 9.9 °C 1005.8 hPa Calm   1.6 km/h 89% 0.0 mm 0 W/m2
04:26 11.7 °C 9.9 °C 1006.1 hPa WSW 1.4 km/h 4.8 km/h 89% 0.0 mm 0 W/m2
04:31 11.7 °C 9.9 °C 1006.1 hPa Calm     89% 0.0 mm 0 W/m2
04:36 11.6 °C 9.8 °C 1006.1 hPa Calm   1.6 km/h 89% 0.0 mm 0 W/m2
04:41 11.6 °C 9.8 °C 1006.1 hPa WSW 3.2 km/h 3.2 km/h 89% 0.0 mm 0 W/m2
04:46 11.6 °C 9.8 °C 1006.1 hPa Calm   1.6 km/h 89% 0.0 mm 0 W/m2
04:51 11.6 °C 9.8 °C 1006.1 hPa Calm   3.2 km/h 89% 0.0 mm 0 W/m2
04:56 11.6 °C 9.8 °C 1006.1 hPa Calm     89% 0.0 mm 0 W/m2
05:01 11.6 °C 9.8 °C 1006.1 hPa Calm     89% 0.0 mm 0 W/m2
05:06 11.6 °C 10 °C 1005.8 hPa Calm     90% 0.0 mm 0 W/m2
05:11 11.6 °C 10 °C 1005.8 hPa Calm     90% 0.0 mm 0 W/m2
05:16 11.6 °C 10 °C 1005.8 hPa Calm     90% 0.0 mm 0 W/m2
05:21 11.6 °C 10 °C 1005.8 hPa Calm     90% 0.0 mm 0 W/m2
05:26 11.5 °C 9.9 °C 1005.8 hPa Calm     90% 0.0 mm 0 W/m2
05:31 11.5 °C 9.9 °C 1005.8 hPa Calm     90% 0.0 mm 0 W/m2
05:36 11.4 °C 9.8 °C 1005.8 hPa Calm     90% 0.0 mm 0 W/m2
05:41 11.4 °C 9.8 °C 1006.1 hPa Calm   1.6 km/h 90% 0.0 mm 0 W/m2
05:46 11.4 °C 9.8 °C 1006.1 hPa Calm     90% 0.0 mm 0 W/m2
05:51 11.4 °C 9.8 °C 1006.1 hPa Calm   1.6 km/h 90% 0.0 mm 0 W/m2
05:56 11.4 °C 10 °C 1006.4 hPa WSW 1.4 km/h 1.6 km/h 91% 0.0 mm 0 W/m2
06:01 11.4 °C 10 °C 1006.4 hPa SSW 1.4 km/h 3.2 km/h 91% 0.0 mm 0 W/m2
06:06 11.6 °C 10.2 °C 1006.4 hPa Calm   1.6 km/h 91% 0.0 mm 0 W/m2
06:11 11.6 °C 10.2 °C 1006.4 hPa Calm     91% 0.0 mm 0 W/m2
06:16 11.7 °C 10.3 °C 1006.4 hPa SSW 1.4 km/h 1.6 km/h 91% 0.0 mm 0 W/m2
06:21 11.7 °C 10.3 °C 1006.4 hPa Calm     91% 0.0 mm 0 W/m2
06:27 11.7 °C 10.3 °C 1006.4 hPa Calm   1.6 km/h 91% 0.0 mm 0 W/m2
06:32 11.7 °C 10.3 °C 1006.4 hPa Calm     91% 0.0 mm 0 W/m2
06:37 11.7 °C 10.3 °C 1006.4 hPa Calm     91% 0.0 mm 0 W/m2
06:42 11.7 °C 10.3 °C 1006.4 hPa SSW 3.2 km/h 3.2 km/h 91% 0.0 mm 0 W/m2
06:47 11.8 °C 10.4 °C 1006.4 hPa Calm   3.2 km/h 91% 0.0 mm 0 W/m2
06:52 11.8 °C 10.4 °C 1006.1 hPa Calm     91% 0.0 mm 0 W/m2
06:57 11.8 °C 10.4 °C 1006.4 hPa Calm     91% 0.0 mm 0 W/m2
07:02 11.8 °C 10.4 °C 1006.4 hPa Calm     91% 0.0 mm 0 W/m2
07:07 11.8 °C 10.4 °C 1006.4 hPa Calm     91% 0.0 mm 5 W/m2
07:12 11.8 °C 10.4 °C 1006.4 hPa Calm     91% 0.0 mm 9 W/m2
07:17 11.7 °C 10.3 °C 1006.4 hPa Calm     91% 0.0 mm 11 W/m2
07:22 11.7 °C 10.3 °C 1006.4 hPa Calm     91% 0.0 mm 12 W/m2
07:27 11.7 °C 10.3 °C 1006.4 hPa Calm     91% 0.0 mm 19 W/m2
07:32 11.7 °C 10.3 °C 1006.8 hPa Calm     91% 0.0 mm 25 W/m2
07:37 11.8 °C 10.4 °C 1006.8 hPa Calm   1.6 km/h 91% 0.0 mm 26 W/m2
07:42 11.8 °C 10.4 °C 1006.8 hPa Calm     91% 0.0 mm 33 W/m2
07:47 11.8 °C 10.4 °C 1006.8 hPa Calm     91% 0.0 mm 37 W/m2
07:52 11.8 °C 10.4 °C 1006.4 hPa Calm     91% 0.0 mm 40 W/m2
07:57 11.9 °C 10.5 °C 1006.8 hPa NW 1.4 km/h 3.2 km/h 91% 0.0 mm 49 W/m2
08:02 12.1 °C 10.7 °C 1006.8 hPa Calm     91% 0.0 mm 49 W/m2
08:07 12.2 °C 10.8 °C 1006.8 hPa Calm   3.2 km/h 91% 0.0 mm 51 W/m2
08:12 12.3 °C 10.9 °C 1006.8 hPa NW 1.4 km/h 1.6 km/h 91% 0.0 mm 58 W/m2
08:17 12.4 °C 10.8 °C 1007.1 hPa Calm     90% 0.0 mm 72 W/m2
08:22 12.6 °C 10.8 °C 1006.8 hPa Calm   1.6 km/h 89% 0.0 mm 83 W/m2
08:27 12.8 °C 10.9 °C 1006.8 hPa Calm   3.2 km/h 88% 0.0 mm 84 W/m2
08:32 13.1 °C 11 °C 1006.8 hPa Calm     87% 0.0 mm 97 W/m2
08:37 13.3 °C 11 °C 1007.1 hPa Calm   3.2 km/h 86% 0.0 mm 98 W/m2
08:42 13.4 °C 11.1 °C 1007.1 hPa Calm   1.6 km/h 86% 0.0 mm 100 W/m2
08:47 13.6 °C 11.3 °C 1007.1 hPa Calm     86% 0.0 mm 107 W/m2
08:52 13.6 °C 11.1 °C 1007.1 hPa Calm   1.6 km/h 85% 0.0 mm 109 W/m2
08:57 13.7 °C 11.2 °C 1007.1 hPa Calm   1.6 km/h 85% 0.0 mm 109 W/m2
09:02 13.8 °C 11.3 °C 1007.1 hPa Calm   1.6 km/h 85% 0.0 mm 113 W/m2
09:07 13.9 °C 11.2 °C 1006.8 hPa Calm     84% 0.0 mm 114 W/m2
09:12 14 °C 11.3 °C 1006.8 hPa Calm     84% 0.0 mm 121 W/m2
09:17 14.1 °C 11.3 °C 1006.8 hPa Calm     83% 0.0 mm 132 W/m2
09:22 14.2 °C 11.4 °C 1006.8 hPa Calm   4.8 km/h 83% 0.0 mm 142 W/m2
09:27 14.3 °C 11.3 °C 1006.8 hPa NW 1.4 km/h 3.2 km/h 82% 0.0 mm 153 W/m2
09:32 14.4 °C 11.2 °C 1006.8 hPa NW 1.4 km/h 4.8 km/h 81% 0.0 mm 158 W/m2
09:37 14.5 °C 11.5 °C 1006.8 hPa Calm     82% 0.0 mm 158 W/m2
09:42 14.7 °C 11.5 °C 1007.1 hPa NW 1.4 km/h 3.2 km/h 81% 0.0 mm 169 W/m2
09:47 14.8 °C 11.6 °C 1007.1 hPa WSW 1.4 km/h 4.8 km/h 81% 0.0 mm 190 W/m2
09:52 14.9 °C 11.7 °C 1007.1 hPa WNW 1.4 km/h 1.6 km/h 81% 0.0 mm 188 W/m2
09:57 15.1 °C 11.9 °C 1007.5 hPa Calm   4.8 km/h 81% 0.0 mm 192 W/m2
10:02 15.2 °C 12 °C 1007.5 hPa WNW 1.4 km/h 3.2 km/h 81% 0.0 mm 207 W/m2
10:07 15.3 °C 11.7 °C 1007.5 hPa West 1.4 km/h 6.4 km/h 79% 0.0 mm 220 W/m2
10:12 15.3 °C 11.9 °C 1007.5 hPa West 1.4 km/h 3.2 km/h 80% 0.0 mm 225 W/m2
10:17 15.6 °C 12.2 °C 1007.5 hPa NW 1.4 km/h 6.4 km/h 80% 0.0 mm 225 W/m2
10:22 15.8 °C 12.2 °C 1007.5 hPa NE 3.2 km/h 3.2 km/h 79% 0.0 mm 223 W/m2
10:27 16.1 °C 12.3 °C 1007.8 hPa Calm   6.4 km/h 78% 0.0 mm 223 W/m2
10:32 16.3 °C 12.1 °C 1007.8 hPa East 1.4 km/h 4.8 km/h 76% 0.0 mm 223 W/m2
10:37 16.5 °C 12.1 °C 1007.8 hPa WNW 6.4 km/h 6.4 km/h 75% 0.0 mm 225 W/m2
10:42 16.6 °C 12.1 °C 1007.8 hPa NNW 3.2 km/h 3.2 km/h 75% 0.0 mm 232 W/m2
10:47 16.7 °C 12 °C 1007.8 hPa NNE 4.7 km/h 4.8 km/h 74% 0.0 mm 237 W/m2
10:52 16.8 °C 12.1 °C 1007.8 hPa NE 1.4 km/h 4.8 km/h 74% 0.0 mm 241 W/m2
10:57 17 °C 12.3 °C 1007.8 hPa NNW 4.7 km/h 4.8 km/h 74% 0.0 mm 241 W/m2
11:02 17.1 °C 12.2 °C 1008.1 hPa WNW 3.2 km/h 6.4 km/h 73% 0.0 mm 241 W/m2
11:07 17.2 °C 12.3 °C 1008.1 hPa WNW 3.2 km/h 3.2 km/h 73% 0.0 mm 241 W/m2
11:12 17.3 °C 12.4 °C 1008.1 hPa WSW 1.4 km/h 8 km/h 73% 0.0 mm 251 W/m2
11:17 17.3 °C 12.4 °C 1007.8 hPa NW 3.2 km/h 6.4 km/h 73% 0.0 mm 269 W/m2
11:22 17.6 °C 12.3 °C 1007.8 hPa North 3.2 km/h 9.7 km/h 71% 0.0 mm 294 W/m2
11:27 17.7 °C 12.4 °C 1007.8 hPa North 4.7 km/h 4.8 km/h 71% 0.0 mm 309 W/m2
11:32 17.8 °C 12.7 °C 1007.8 hPa West 4.7 km/h 9.7 km/h 72% 0.0 mm 406 W/m2
11:37 18 °C 12.4 °C 1007.8 hPa NNW 4.7 km/h 6.4 km/h 70% 0.0 mm 297 W/m2
11:42 18.1 °C 12.5 °C 1007.8 hPa ESE 3.2 km/h 9.7 km/h 70% 0.0 mm 311 W/m2
11:47 18.2 °C 12.6 °C 1007.8 hPa Calm   3.2 km/h 70% 0.0 mm 408 W/m2
11:53 18.3 °C 12.5 °C 1007.8 hPa Calm   4.8 km/h 69% 0.0 mm 408 W/m2
11:58 18.4 °C 12.6 °C 1007.8 hPa ENE 4.7 km/h 4.8 km/h 69% 0.0 mm 373 W/m2
12:03 18.5 °C 12.5 °C 1007.8 hPa ESE 1.4 km/h 4.8 km/h 68% 0.0 mm 330 W/m2
12:08 18.6 °C 12.4 °C 1007.8 hPa Calm   1.6 km/h 67% 0.0 mm 353 W/m2
12:13 18.8 °C 12.8 °C 1007.8 hPa South 1.4 km/h 1.6 km/h 68% 0.0 mm 378 W/m2
12:18 19.1 °C 12.6 °C 1007.8 hPa North 1.4 km/h 3.2 km/h 66% 0.0 mm 408 W/m2
12:23 19.2 °C 12.7 °C 1007.8 hPa NNE 4.7 km/h 4.8 km/h 66% 0.0 mm 415 W/m2
12:28 19.2 °C 12 °C 1008.1 hPa SW 1.4 km/h 3.2 km/h 63% 0.0 mm 443 W/m2
12:33 19.3 °C 12.3 °C 1008.1 hPa North 3.2 km/h 4.8 km/h 64% 0.0 mm 424 W/m2
12:38 19.3 °C 12.1 °C 1008.1 hPa WSW 3.2 km/h 9.7 km/h 63% 0.0 mm 394 W/m2
12:43 19.2 °C 12.2 °C 1008.1 hPa ESE 4.7 km/h 4.8 km/h 64% 0.0 mm 346 W/m2
12:48 19.3 °C 12.6 °C 1008.5 hPa ENE 3.2 km/h 8 km/h 65% 0.0 mm 343 W/m2
12:53 19.4 °C 12.7 °C 1008.1 hPa East 3.2 km/h 4.8 km/h 65% 0.0 mm 362 W/m2
12:58 19.5 °C 12.3 °C 1008.1 hPa NE 4.7 km/h 4.8 km/h 63% 0.0 mm 369 W/m2
13:03 19.6 °C 12.4 °C 1008.5 hPa Calm   1.6 km/h 63% 0.0 mm 362 W/m2
13:08 19.7 °C 12 °C 1008.5 hPa North 3.2 km/h 8 km/h 61% 0.0 mm 362 W/m2
13:13 19.7 °C 11.7 °C 1008.5 hPa ENE 3.2 km/h 6.4 km/h 60% 0.0 mm 359 W/m2
13:18 19.7 °C 11.7 °C 1008.5 hPa NE 3.2 km/h 8 km/h 60% 0.0 mm 318 W/m2
13:23 19.7 °C 11.7 °C 1008.5 hPa WSW 1.4 km/h 4.8 km/h 60% 0.0 mm 302 W/m2
13:28 19.7 °C 12 °C 1008.5 hPa NE 3.2 km/h 4.8 km/h 61% 0.0 mm 362 W/m2
13:33 19.8 °C 12.3 °C 1008.5 hPa NW 4.7 km/h 9.7 km/h 62% 0.0 mm 380 W/m2
13:38 19.9 °C 11.9 °C 1008.5 hPa WSW 4.7 km/h 6.4 km/h 60% 0.0 mm 359 W/m2
13:43 19.9 °C 12.2 °C 1008.8 hPa WNW 1.4 km/h 6.4 km/h 61% 0.0 mm 388 W/m2
13:48 19.8 °C 11.6 °C 1008.8 hPa North 4.7 km/h 8 km/h 59% 0.0 mm 399 W/m2
13:53 20 °C 11.7 °C 1008.8 hPa West 6.4 km/h 12.9 km/h 59% 0.0 mm 392 W/m2
13:58 19.9 °C 11.4 °C 1008.8 hPa WSW 1.4 km/h 4.8 km/h 58% 0.0 mm 388 W/m2
14:03 20 °C 11.7 °C 1008.8 hPa WNW 1.4 km/h 12.9 km/h 59% 0.0 mm 369 W/m2
14:08 19.9 °C 11.6 °C 1008.8 hPa WNW 4.7 km/h 8 km/h 59% 0.0 mm 392 W/m2
14:13 19.9 °C 11.6 °C 1008.8 hPa NW 4.7 km/h 6.4 km/h 59% 0.0 mm 394 W/m2
14:18 20 °C 11.5 °C 1008.8 hPa North 3.2 km/h 4.8 km/h 58% 0.0 mm 390 W/m2
14:23 20.1 °C 11.6 °C 1008.8 hPa WNW 4.7 km/h 6.4 km/h 58% 0.0 mm 394 W/m2
14:28 20.1 °C 11.6 °C 1008.8 hPa WSW 1.4 km/h 4.8 km/h 58% 0.0 mm 420 W/m2
14:33 20.1 °C 11 °C 1008.8 hPa West 13 km/h 12.9 km/h 56% 0.0 mm 399 W/m2
14:38 20.2 °C 11.4 °C 1008.8 hPa WNW 1.4 km/h 6.4 km/h 57% 0.0 mm 403 W/m2
14:44 20.3 °C 11.2 °C 1008.8 hPa NW 1.4 km/h 12.9 km/h 56% 0.0 mm 396 W/m2
14:49 20.4 °C 11.6 °C 1008.8 hPa WNW 6.4 km/h 6.4 km/h 57% 0.0 mm 322 W/m2
14:54 20.4 °C 11.6 °C 1008.8 hPa NNW 4.7 km/h 4.8 km/h 57% 0.0 mm 390 W/m2
14:59 20.3 °C 11.5 °C 1008.8 hPa WSW 7.9 km/h 12.9 km/h 57% 0.0 mm 299 W/m2
15:04 20.3 °C 11.2 °C 1008.8 hPa WNW 6.4 km/h 12.9 km/h 56% 0.0 mm 445 W/m2
15:09 20.3 °C 11.2 °C 1008.8 hPa West 3.2 km/h 8 km/h 56% 0.0 mm 283 W/m2
15:14 20.4 °C 11.6 °C 1009.1 hPa WNW 4.7 km/h 12.9 km/h 57% 0.0 mm 436 W/m2
15:19 20.6 °C 11.8 °C 1008.8 hPa WNW 9.7 km/h 12.9 km/h 57% 0.0 mm 425 W/m2
15:24 20.7 °C 11.3 °C 1008.8 hPa WNW 4.7 km/h 11.3 km/h 55% 0.0 mm 411 W/m2
15:29 20.7 °C 11.3 °C 1008.8 hPa NW 6.4 km/h 9.7 km/h 55% 0.0 mm 265 W/m2
15:34 20.7 °C 11.3 °C 1008.8 hPa WNW 1.4 km/h 8 km/h 55% 0.0 mm 378 W/m2
15:39 20.8 °C 11.4 °C 1008.8 hPa WSW 6.4 km/h 11.3 km/h 55% 0.0 mm 329 W/m2
15:44 20.8 °C 11.4 °C 1008.8 hPa WSW 3.2 km/h 17.7 km/h 55% 0.0 mm 253 W/m2
15:49 20.7 °C 11.3 °C 1009.1 hPa SW 6.4 km/h 11.3 km/h 55% 0.0 mm 225 W/m2
15:54 20.6 °C 11.5 °C 1009.1 hPa WNW 4.7 km/h 17.7 km/h 56% 0.0 mm 232 W/m2
15:59 20.5 °C 11.4 °C 1009.1 hPa WSW 3.2 km/h 17.7 km/h 56% 0.0 mm 258 W/m2
16:04 20.5 °C 11.7 °C 1009.1 hPa West 6.4 km/h 14.5 km/h 57% 0.0 mm 251 W/m2
16:09 20.5 °C 11.1 °C 1009.1 hPa WSW 6.4 km/h 17.7 km/h 55% 0.0 mm 265 W/m2
16:14 20.6 °C 11.5 °C 1009.1 hPa NW 3.2 km/h 8 km/h 56% 0.0 mm 209 W/m2
16:19 20.6 °C 11.8 °C 1009.1 hPa West 13 km/h 14.5 km/h 57% 0.0 mm 151 W/m2
16:24 20.4 °C 11.6 °C 1009.1 hPa WSW 4.7 km/h 9.7 km/h 57% 0.0 mm 100 W/m2
16:30 20.3 °C 11.8 °C 1009.1 hPa WSW 4.7 km/h 16.1 km/h 58% 0.0 mm 95 W/m2
16:35 20.2 °C 11.7 °C 1009.1 hPa NW 6.4 km/h 9.7 km/h 58% 0.0 mm 97 W/m2
16:40 20.1 °C 11.8 °C 1009.1 hPa West 6.4 km/h 16.1 km/h 59% 0.0 mm 105 W/m2
16:45 20.1 °C 11.8 °C 1009.1 hPa WNW 9.7 km/h 11.3 km/h 59% 0.0 mm 118 W/m2
16:50 20.1 °C 11.8 °C 1009.1 hPa West 6.4 km/h 11.3 km/h 59% 0.0 mm 141 W/m2
16:55 20.1 °C 11.8 °C 1009.5 hPa NW 11.1 km/h 11.3 km/h 59% 0.0 mm 139 W/m2
17:00 20.1 °C 11.8 °C 1009.5 hPa West 6.4 km/h 11.3 km/h 59% 0.0 mm 148 W/m2
17:05 20 °C 11.5 °C 1009.5 hPa WNW 11.1 km/h 11.3 km/h 58% 0.0 mm 155 W/m2
17:10 20.1 °C 11.6 °C 1009.5 hPa WNW 4.7 km/h 8 km/h 58% 0.0 mm 160 W/m2
17:15 20.1 °C 11.6 °C 1009.5 hPa West 4.7 km/h 14.5 km/h 58% 0.0 mm 160 W/m2
17:20 20.2 °C 11.7 °C 1009.5 hPa WNW 6.4 km/h 11.3 km/h 58% 0.0 mm 151 W/m2
17:25 20.1 °C 11.6 °C 1009.5 hPa WNW 6.4 km/h 11.3 km/h 58% 0.0 mm 137 W/m2
17:30 20.1 °C 11.6 °C 1009.8 hPa NW 3.2 km/h 11.3 km/h 58% 0.0 mm 121 W/m2
17:35 20.1 °C 11.8 °C 1009.8 hPa WSW 11.1 km/h 11.3 km/h 59% 0.0 mm 123 W/m2
17:40 20.1 °C 11.6 °C 1009.8 hPa NW 4.7 km/h 9.7 km/h 58% 0.0 mm 114 W/m2
17:45 20.1 °C 11.8 °C 1009.8 hPa WNW 4.7 km/h 9.7 km/h 59% 0.0 mm 127 W/m2
17:50 20.1 °C 11.8 °C 1009.8 hPa WSW 6.4 km/h 6.4 km/h 59% 0.0 mm 148 W/m2
17:55 20.1 °C 11.8 °C 1009.8 hPa West 3.2 km/h 16.1 km/h 59% 0.0 mm 165 W/m2
18:00 20.1 °C 11.8 °C 1009.8 hPa WNW 6.4 km/h 12.9 km/h 59% 0.0 mm 186 W/m2
18:05 20.1 °C 11.8 °C 1010.2 hPa West 4.7 km/h 11.3 km/h 59% 0.0 mm 211 W/m2
18:10 20.2 °C 11.9 °C 1010.2 hPa WSW 4.7 km/h 11.3 km/h 59% 0.0 mm 155 W/m2
18:15 20.2 °C 11.9 °C 1010.2 hPa West 3.2 km/h 6.4 km/h 59% 0.0 mm 142 W/m2
18:20 20.2 °C 11.9 °C 1010.2 hPa West 4.7 km/h 9.7 km/h 59% 0.0 mm 155 W/m2
18:25 20.2 °C 11.9 °C 1010.2 hPa West 4.7 km/h 8 km/h 59% 0.0 mm 144 W/m2
18:30 20.1 °C 11.8 °C 1010.2 hPa SW 3.2 km/h 14.5 km/h 59% 0.0 mm 148 W/m2
18:36 20.1 °C 11.8 °C 1010.2 hPa WNW 4.7 km/h 6.4 km/h 59% 0.0 mm 139 W/m2
18:41 20.1 °C 11.8 °C 1010.2 hPa WNW 13 km/h 12.9 km/h 59% 0.0 mm 151 W/m2
18:46 20.1 °C 11.8 °C 1010.2 hPa West 4.7 km/h 9.7 km/h 59% 0.0 mm 146 W/m2
18:51 20.1 °C 11.8 °C 1010.2 hPa West 4.7 km/h 11.3 km/h 59% 0.0 mm 193 W/m2
18:56 20.1 °C 11.8 °C 1010.2 hPa West 4.7 km/h 16.1 km/h 59% 0.0 mm 162 W/m2
19:01 20 °C 12 °C 1010.2 hPa West 11.1 km/h 17.7 km/h 60% 0.0 mm 125 W/m2
19:06 19.8 °C 11.8 °C 1010.2 hPa West 4.7 km/h 16.1 km/h 60% 0.0 mm 118 W/m2
19:11 19.7 °C 12 °C 1010.2 hPa WSW 6.4 km/h 16.1 km/h 61% 0.0 mm 105 W/m2
19:16 19.7 °C 12 °C 1010.5 hPa WNW 9.7 km/h 14.5 km/h 61% 0.0 mm 123 W/m2
19:21 19.7 °C 12.2 °C 1010.5 hPa SW 4.7 km/h 6.4 km/h 62% 0.0 mm 100 W/m2
19:26 19.4 °C 11.9 °C 1010.5 hPa WSW 14.3 km/h 14.5 km/h 62% 0.0 mm 67 W/m2
19:31 19.3 °C 11.8 °C 1010.5 hPa WNW 3.2 km/h 11.3 km/h 62% 0.0 mm 51 W/m2
19:36 19.2 °C 11.7 °C 1010.5 hPa WSW 3.2 km/h 11.3 km/h 62% 0.0 mm 40 W/m2
19:41 19.1 °C 11.9 °C 1010.5 hPa West 6.4 km/h 16.1 km/h 63% 0.0 mm 33 W/m2
19:46 18.9 °C 11.7 °C 1010.5 hPa WNW 3.2 km/h 8 km/h 63% 0.0 mm 26 W/m2
19:51 18.8 °C 11.6 °C 1010.5 hPa WSW 4.7 km/h 16.1 km/h 63% 0.0 mm 23 W/m2
19:56 18.7 °C 11.8 °C 1010.8 hPa NW 6.4 km/h 12.9 km/h 64% 0.0 mm 19 W/m2
20:01 18.5 °C 11.6 °C 1010.8 hPa WNW 4.7 km/h 17.7 km/h 64% 0.0 mm 16 W/m2
20:06 18.4 °C 11.5 °C 1010.8 hPa NW 9.7 km/h 14.5 km/h 64% 0.0 mm 12 W/m2
20:11 18.3 °C 11.4 °C 1010.8 hPa NW 3.2 km/h 17.7 km/h 64% 0.0 mm 9 W/m2
20:16 18.2 °C 11.3 °C 1010.8 hPa WNW 4.7 km/h 12.9 km/h 64% 0.0 mm 5 W/m2
20:21 18.1 °C 11.4 °C 1011.2 hPa WNW 6.4 km/h 6.4 km/h 65% 0.0 mm 7 W/m2
20:26 18 °C 11.3 °C 1011.2 hPa WSW 4.7 km/h 11.3 km/h 65% 0.0 mm 0 W/m2
20:31 17.9 °C 11.2 °C 1011.2 hPa West 4.7 km/h 16.1 km/h 65% 0.0 mm 0 W/m2
20:36 17.8 °C 11.4 °C 1011.5 hPa WSW 6.4 km/h 11.3 km/h 66% 0.0 mm 0 W/m2
20:41 17.8 °C 11.4 °C 1011.5 hPa West 9.7 km/h 12.9 km/h 66% 0.0 mm 0 W/m2
20:46 17.7 °C 11.3 °C 1011.5 hPa West 4.7 km/h 16.1 km/h 66% 0.0 mm 0 W/m2
20:51 17.6 °C 11.2 °C 1011.9 hPa West 6.4 km/h 16.1 km/h 66% 0.0 mm 0 W/m2
20:56 17.6 °C 11.2 °C 1011.9 hPa West 11.1 km/h 12.9 km/h 66% 0.0 mm 0 W/m2
21:01 17.5 °C 11.3 °C 1011.9 hPa WSW 11.1 km/h 17.7 km/h 67% 0.0 mm 0 W/m2
21:06 17.4 °C 11.2 °C 1011.9 hPa West 4.7 km/h 9.7 km/h 67% 0.0 mm 0 W/m2
21:11 17.3 °C 11.1 °C 1011.9 hPa West 9.7 km/h 17.7 km/h 67% 0.0 mm 0 W/m2
21:16 17.3 °C 11.1 °C 1012.2 hPa West 9.7 km/h 9.7 km/h 67% 0.0 mm 0 W/m2
21:21 17.3 °C 11.3 °C 1012.2 hPa WNW 4.7 km/h 17.7 km/h 68% 0.0 mm 0 W/m2
21:26 17.2 °C 11.2 °C 1012.2 hPa West 17.7 km/h 17.7 km/h 68% 0.0 mm 0 W/m2
21:31 17.2 °C 11.2 °C 1012.2 hPa WSW 6.4 km/h 12.9 km/h 68% 0.0 mm 0 W/m2
21:36 17.2 °C 11.2 °C 1012.2 hPa WNW 11.1 km/h 17.7 km/h 68% 0.0 mm 0 W/m2
21:41 17.2 °C 11.2 °C 1012.2 hPa West 3.2 km/h 17.7 km/h 68% 0.0 mm 0 W/m2
21:46 17.1 °C 11.4 °C 1012.2 hPa West 6.4 km/h 12.9 km/h 69% 0.0 mm 0 W/m2
21:51 16.9 °C 11.2 °C 1012.5 hPa WNW 4.7 km/h 12.9 km/h 69% 0.0 mm 0 W/m2
21:56 16.9 °C 11.4 °C 1012.5 hPa WSW 4.7 km/h 11.3 km/h 70% 0.0 mm 0 W/m2
22:01 16.9 °C 11.4 °C 1012.5 hPa WSW 13 km/h 19.3 km/h 70% 0.0 mm 0 W/m2
22:06 16.9 °C 11.4 °C 1012.9 hPa West 9.7 km/h 12.9 km/h 70% 0.0 mm 0 W/m2
22:11 16.8 °C 11.3 °C 1012.9 hPa WNW 6.4 km/h 19.3 km/h 70% 0.0 mm 0 W/m2
22:16 16.8 °C 11.3 °C 1012.9 hPa WNW 7.9 km/h 12.9 km/h 70% 0.0 mm 0 W/m2
22:21 16.7 °C 11.4 °C 1012.9 hPa West 13 km/h 16.1 km/h 71% 0.0 mm 0 W/m2
22:26 16.7 °C 11.4 °C 1012.9 hPa WNW 4.7 km/h 14.5 km/h 71% 0.0 mm 0 W/m2
22:32 16.7 °C 11.4 °C 1012.9 hPa WNW 11.1 km/h 11.3 km/h 71% 0.0 mm 0 W/m2
22:37 16.6 °C 11.5 °C 1012.9 hPa West 3.2 km/h 6.4 km/h 72% 0.0 mm 0 W/m2
22:42 16.6 °C 11.5 °C 1012.9 hPa West 6.4 km/h 12.9 km/h 72% 0.0 mm 0 W/m2
22:47 16.6 °C 11.5 °C 1012.9 hPa WNW 1.4 km/h 14.5 km/h 72% 0.0 mm 0 W/m2
22:52 16.6 °C 11.7 °C 1012.9 hPa WNW 6.4 km/h 9.7 km/h 73% 0.0 mm 0 W/m2
22:57 16.6 °C 11.7 °C 1012.9 hPa West 9.7 km/h 16.1 km/h 73% 0.0 mm 0 W/m2
23:02 16.6 °C 11.7 °C 1012.9 hPa West 6.4 km/h 11.3 km/h 73% 0.0 mm 0 W/m2
23:07 16.6 °C 11.7 °C 1013.2 hPa West 6.4 km/h 16.1 km/h 73% 0.0 mm 0 W/m2
23:12 16.7 °C 12 °C 1013.2 hPa West 6.4 km/h 11.3 km/h 74% 0.0 mm 0 W/m2
23:17 16.6 °C 11.9 °C 1013.2 hPa WNW 7.9 km/h 12.9 km/h 74% 0.0 mm 0 W/m2
23:22 16.6 °C 12.1 °C 1013.2 hPa NW 4.7 km/h 14.5 km/h 75% 0.0 mm 0 W/m2
23:27 16.6 °C 12.1 °C 1013.2 hPa WSW 7.9 km/h 8 km/h 75% 0.0 mm 0 W/m2
23:32 16.5 °C 12.3 °C 1013.2 hPa WSW 4.7 km/h 14.5 km/h 76% 0.0 mm 0 W/m2
23:37 16.4 °C 12.4 °C 1013.2 hPa WNW 4.7 km/h 9.7 km/h 77% 0.0 mm 0 W/m2
23:42 16.4 °C 12.6 °C 1013.5 hPa West 6.4 km/h 12.9 km/h 78% 0.0 mm 0 W/m2
23:47 16.3 °C 12.5 °C 1013.5 hPa WSW 6.4 km/h 11.3 km/h 78% 0.0 mm 0 W/m2
23:52 16.3 °C 12.7 °C 1013.5 hPa West 4.7 km/h 9.7 km/h 79% 0.0 mm 0 W/m2
23:57 16.3 °C 12.8 °C 1013.5 hPa NW 6.4 km/h 11.3 km/h 80% 0.0 mm 0 W/m2
Juneau County Weather
Compliments of Weather Underground - 4 mb